KCGE

Cambridge-Dorchester Regional Airport

Cambridge, Maryland, USA
METAR KCGE 210635Z AUTO 02003KT 10SM CLR 22/21 A3006 RMK A01
Observed Flight Rules
May-21 @ 06:35 UTC (35 minutes ago) Visual Flight Rules
Wind Visibility Clouds
20° at 3 knots 10 miles
  • Clear skies
Temperatures Readings
Current 22°C / 72°F
Dewpoint 21°C / 70°F
Humidity 94%
Altimeter 30.06" Hg
Pressure 1018 hPa
Elevation 6
METAR KCGE 210635Z AUTO 02003KT 10SM CLR 22/21 A3006 RMK A01
Observed Flight Rules
May-21 @ 06:35 UTC
(35 minutes ago)
VFR
Wind Visibility
20° at 3 knots 10 miles
Clouds
  • Clear skies
Temperature Dewpoint
22°C / 72°F 21°C / 70°F
Humidity Altimeter Pressure
94% 30.06" Hg 1018 hPa